sensor_id;sensor_type;location;lat;lon;timestamp;pressure;altitude;pressure_sealevel;temperature;humidity
70250;BME280;57644;48.416;-123.374;2022-10-15T00:01:15;101527.31;;;8.89;67.54
70250;BME280;57644;48.416;-123.374;2022-10-15T00:03:44;101522.25;;;8.86;67.74
70250;BME280;57644;48.416;-123.374;2022-10-15T00:06:16;101521.92;;;8.89;67.98
70250;BME280;57644;48.416;-123.374;2022-10-15T00:08:44;101517.85;;;8.92;67.67
70250;BME280;57644;48.416;-123.374;2022-10-15T00:11:16;101514.87;;;8.92;67.66
70250;BME280;57644;48.416;-123.374;2022-10-15T00:13:44;101514.60;;;8.94;67.60
70250;BME280;57644;48.416;-123.374;2022-10-15T00:16:16;101513.01;;;8.92;67.59
70250;BME280;57644;48.416;-123.374;2022-10-15T00:18:45;101516.24;;;8.93;67.60
70250;BME280;57644;48.416;-123.374;2022-10-15T00:21:16;101520.22;;;8.96;67.45
70250;BME280;57644;48.416;-123.374;2022-10-15T00:23:46;101516.08;;;8.98;67.64
70250;BME280;57644;48.416;-123.374;2022-10-15T00:26:18;101520.31;;;9.00;67.36
70250;BME280;57644;48.416;-123.374;2022-10-15T00:28:48;101525.18;;;8.99;67.59
70250;BME280;57644;48.416;-123.374;2022-10-15T00:31:18;101521.26;;;9.02;67.43
70250;BME280;57644;48.416;-123.374;2022-10-15T00:33:49;101526.43;;;9.03;67.31
70250;BME280;57644;48.416;-123.374;2022-10-15T00:36:20;101530.16;;;9.09;67.33
70250;BME280;57644;48.416;-123.374;2022-10-15T00:38:48;101531.59;;;9.04;67.21
70250;BME280;57644;48.416;-123.374;2022-10-15T00:41:21;101535.71;;;9.03;67.21
70250;BME280;57644;48.416;-123.374;2022-10-15T00:43:50;101535.95;;;9.04;67.22
70250;BME280;57644;48.416;-123.374;2022-10-15T00:46:24;101523.82;;;9.00;67.23
70250;BME280;57644;48.416;-123.374;2022-10-15T00:48:55;101509.61;;;8.91;67.99
70250;BME280;57644;48.416;-123.374;2022-10-15T00:51:21;101508.82;;;8.85;68.15
70250;BME280;57644;48.416;-123.374;2022-10-15T00:53:52;101520.07;;;8.88;67.86
70250;BME280;57644;48.416;-123.374;2022-10-15T00:56:22;101522.41;;;8.89;67.60
70250;BME280;57644;48.416;-123.374;2022-10-15T00:58:52;101533.51;;;8.93;67.35
70250;BME280;57644;48.416;-123.374;2022-10-15T01:01:22;101541.11;;;8.97;67.15
70250;BME280;57644;48.416;-123.374;2022-10-15T01:03:53;101540.53;;;9.03;67.02
70250;BME280;57644;48.416;-123.374;2022-10-15T01:06:23;101534.39;;;8.94;67.53
70250;BME280;57644;48.416;-123.374;2022-10-15T01:08:52;101535.19;;;8.93;67.59
70250;BME280;57644;48.416;-123.374;2022-10-15T01:11:33;101537.06;;;8.89;67.60
70250;BME280;57644;48.416;-123.374;2022-10-15T01:13:59;101527.13;;;8.88;67.82
70250;BME280;57644;48.416;-123.374;2022-10-15T01:16:30;101527.97;;;8.90;67.57
70250;BME280;57644;48.416;-123.374;2022-10-15T01:18:57;101525.97;;;8.88;67.52
70250;BME280;57644;48.416;-123.374;2022-10-15T01:21:30;101522.11;;;8.84;68.06
70250;BME280;57644;48.416;-123.374;2022-10-15T01:29:02;101514.14;;;8.69;67.97
70250;BME280;57644;48.416;-123.374;2022-10-15T01:31:31;101509.17;;;8.67;68.24
70250;BME280;57644;48.416;-123.374;2022-10-15T01:33:59;101506.55;;;8.61;68.61
70250;BME280;57644;48.416;-123.374;2022-10-15T01:36:31;101501.31;;;8.58;69.13
70250;BME280;57644;48.416;-123.374;2022-10-15T01:38:59;101506.17;;;8.54;69.16
70250;BME280;57644;48.416;-123.374;2022-10-15T01:41:30;101508.78;;;8.55;69.38
70250;BME280;57644;48.416;-123.374;2022-10-15T01:44:00;101508.71;;;8.53;69.52
70250;BME280;57644;48.416;-123.374;2022-10-15T01:46:31;101509.00;;;8.56;69.06
70250;BME280;57644;48.416;-123.374;2022-10-15T01:48:58;101508.61;;;8.64;68.87
70250;BME280;57644;48.416;-123.374;2022-10-15T01:51:29;101502.72;;;8.59;68.79
70250;BME280;57644;48.416;-123.374;2022-10-15T01:53:59;101509.69;;;8.56;68.97
70250;BME280;57644;48.416;-123.374;2022-10-15T01:56:31;101510.19;;;8.55;69.22
70250;BME280;57644;48.416;-123.374;2022-10-15T01:59:00;101505.28;;;8.53;69.18
70250;BME280;57644;48.416;-123.374;2022-10-15T02:01:29;101503.32;;;8.55;68.94
70250;BME280;57644;48.416;-123.374;2022-10-15T02:04:00;101500.65;;;8.57;69.20
70250;BME280;57644;48.416;-123.374;2022-10-15T02:06:33;101500.92;;;8.53;69.33
70250;BME280;57644;48.416;-123.374;2022-10-15T02:09:09;101504.64;;;8.51;69.24
70250;BME280;57644;48.416;-123.374;2022-10-15T02:11:35;101511.12;;;8.54;69.10
70250;BME280;57644;48.416;-123.374;2022-10-15T02:14:06;101517.35;;;8.41;69.63
70250;BME280;57644;48.416;-123.374;2022-10-15T02:16:36;101518.06;;;8.37;69.02
70250;BME280;57644;48.416;-123.374;2022-10-15T02:19:05;101520.48;;;8.40;68.76
70250;BME280;57644;48.416;-123.374;2022-10-15T02:21:36;101526.76;;;8.35;69.18
70250;BME280;57644;48.416;-123.374;2022-10-15T02:24:07;101529.08;;;8.36;68.50
70250;BME280;57644;48.416;-123.374;2022-10-15T02:26:34;101525.28;;;8.31;69.14
70250;BME280;57644;48.416;-123.374;2022-10-15T02:29:07;101521.32;;;8.23;69.37
70250;BME280;57644;48.416;-123.374;2022-10-15T02:31:33;101520.71;;;8.26;69.03
70250;BME280;57644;48.416;-123.374;2022-10-15T02:34:05;101519.71;;;8.27;68.46
70250;BME280;57644;48.416;-123.374;2022-10-15T02:36:33;101516.94;;;8.31;68.55
70250;BME280;57644;48.416;-123.374;2022-10-15T02:39:05;101519.61;;;8.28;68.53
70250;BME280;57644;48.416;-123.374;2022-10-15T02:41:34;101524.22;;;8.24;68.83
70250;BME280;57644;48.416;-123.374;2022-10-15T02:44:03;101524.91;;;8.05;69.74
70250;BME280;57644;48.416;-123.374;2022-10-15T02:46:33;101525.68;;;8.00;69.78
70250;BME280;57644;48.416;-123.374;2022-10-15T02:49:04;101526.15;;;7.91;70.29
70250;BME280;57644;48.416;-123.374;2022-10-15T02:51:35;101530.99;;;7.95;70.47
70250;BME280;57644;48.416;-123.374;2022-10-15T02:54:06;101533.20;;;7.85;70.71
70250;BME280;57644;48.416;-123.374;2022-10-15T02:56:35;101537.14;;;7.78;71.56
70250;BME280;57644;48.416;-123.374;2022-10-15T02:59:06;101537.54;;;7.77;71.10
70250;BME280;57644;48.416;-123.374;2022-10-15T03:01:36;101540.47;;;7.79;70.85
70250;BME280;57644;48.416;-123.374;2022-10-15T03:04:06;101536.43;;;7.78;70.74
70250;BME280;57644;48.416;-123.374;2022-10-15T03:06:37;101535.99;;;7.81;70.47
70250;BME280;57644;48.416;-123.374;2022-10-15T03:09:08;101532.00;;;7.69;71.58
70250;BME280;57644;48.416;-123.374;2022-10-15T03:14:09;101527.50;;;7.71;70.63
70250;BME280;57644;48.416;-123.374;2022-10-15T03:16:43;101525.51;;;7.72;70.36
70250;BME280;57644;48.416;-123.374;2022-10-15T03:21:39;101528.05;;;7.65;70.36
70250;BME280;57644;48.416;-123.374;2022-10-15T03:24:09;101531.81;;;7.58;71.27
70250;BME280;57644;48.416;-123.374;2022-10-15T03:26:44;101531.31;;;7.48;71.14
70250;BME280;57644;48.416;-123.374;2022-10-15T03:29:10;101525.56;;;7.36;72.05
70250;BME280;57644;48.416;-123.374;2022-10-15T03:31:40;101525.99;;;7.39;71.91
70250;BME280;57644;48.416;-123.374;2022-10-15T03:34:10;101531.52;;;7.45;71.71
70250;BME280;57644;48.416;-123.374;2022-10-15T03:36:40;101525.53;;;7.43;71.86
70250;BME280;57644;48.416;-123.374;2022-10-15T03:41:42;101529.21;;;7.44;71.99
70250;BME280;57644;48.416;-123.374;2022-10-15T03:44:11;101529.55;;;7.47;71.87
70250;BME280;57644;48.416;-123.374;2022-10-15T03:46:42;101533.85;;;7.37;72.21
70250;BME280;57644;48.416;-123.374;2022-10-15T03:49:12;101534.93;;;7.32;73.11
70250;BME280;57644;48.416;-123.374;2022-10-15T03:51:42;101533.39;;;7.21;72.76
70250;BME280;57644;48.416;-123.374;2022-10-15T03:54:13;101527.20;;;7.22;72.73
70250;BME280;57644;48.416;-123.374;2022-10-15T03:56:43;101522.61;;;7.25;72.67
70250;BME280;57644;48.416;-123.374;2022-10-15T03:59:13;101519.68;;;7.28;72.66
70250;BME280;57644;48.416;-123.374;2022-10-15T04:01:44;101525.75;;;7.31;72.50
70250;BME280;57644;48.416;-123.374;2022-10-15T04:06:45;101533.98;;;7.20;72.91
70250;BME280;57644;48.416;-123.374;2022-10-15T04:09:16;101533.76;;;7.20;72.98
70250;BME280;57644;48.416;-123.374;2022-10-15T04:11:46;101527.35;;;7.17;73.42
70250;BME280;57644;48.416;-123.374;2022-10-15T04:14:16;101530.18;;;7.18;73.12
70250;BME280;57644;48.416;-123.374;2022-10-15T04:16:47;101528.74;;;7.12;73.60
70250;BME280;57644;48.416;-123.374;2022-10-15T04:19:19;101532.83;;;7.16;73.44
70250;BME280;57644;48.416;-123.374;2022-10-15T04:21:48;101531.47;;;7.23;73.22
70250;BME280;57644;48.416;-123.374;2022-10-15T04:24:18;101534.70;;;7.26;73.03
70250;BME280;57644;48.416;-123.374;2022-10-15T04:26:49;101536.26;;;7.19;73.35
70250;BME280;57644;48.416;-123.374;2022-10-15T04:29:20;101534.87;;;7.19;73.51
70250;BME280;57644;48.416;-123.374;2022-10-15T04:31:50;101535.07;;;7.20;73.26
70250;BME280;57644;48.416;-123.374;2022-10-15T04:34:22;101535.71;;;7.20;73.52
70250;BME280;57644;48.416;-123.374;2022-10-15T04:36:51;101538.56;;;7.16;73.76
70250;BME280;57644;48.416;-123.374;2022-10-15T04:39:21;101542.58;;;7.12;73.83
70250;BME280;57644;48.416;-123.374;2022-10-15T04:41:53;101549.24;;;7.04;74.36
70250;BME280;57644;48.416;-123.374;2022-10-15T04:44:24;101549.10;;;7.10;73.89
70250;BME280;57644;48.416;-123.374;2022-10-15T04:46:53;101552.29;;;6.94;74.45
70250;BME280;57644;48.416;-123.374;2022-10-15T04:49:26;101555.68;;;6.96;74.12
70250;BME280;57644;48.416;-123.374;2022-10-15T04:51:56;101563.55;;;6.98;74.04
70250;BME280;57644;48.416;-123.374;2022-10-15T04:54:24;101564.62;;;6.96;74.51
70250;BME280;57644;48.416;-123.374;2022-10-15T04:56:54;101561.09;;;6.99;74.31
70250;BME280;57644;48.416;-123.374;2022-10-15T04:59:24;101564.02;;;7.00;74.22
70250;BME280;57644;48.416;-123.374;2022-10-15T05:01:54;101563.06;;;6.99;74.42
70250;BME280;57644;48.416;-123.374;2022-10-15T05:04:28;101560.84;;;7.01;74.31
70250;BME280;57644;48.416;-123.374;2022-10-15T05:06:55;101558.02;;;7.03;74.04
70250;BME280;57644;48.416;-123.374;2022-10-15T05:09:30;101558.52;;;7.10;73.81
70250;BME280;57644;48.416;-123.374;2022-10-15T05:11:55;101554.09;;;7.05;73.92
70250;BME280;57644;48.416;-123.374;2022-10-15T05:14:26;101554.69;;;7.07;73.79
70250;BME280;57644;48.416;-123.374;2022-10-15T05:16:56;101555.26;;;7.01;74.00
70250;BME280;57644;48.416;-123.374;2022-10-15T05:19:27;101559.03;;;7.04;73.74
70250;BME280;57644;48.416;-123.374;2022-10-15T05:21:57;101559.30;;;7.04;73.75
70250;BME280;57644;48.416;-123.374;2022-10-15T05:24:27;101560.97;;;7.04;73.89
70250;BME280;57644;48.416;-123.374;2022-10-15T05:26:57;101557.56;;;7.02;73.86
70250;BME280;57644;48.416;-123.374;2022-10-15T05:29:27;101553.69;;;6.92;73.95
70250;BME280;57644;48.416;-123.374;2022-10-15T05:31:58;101554.04;;;6.86;73.91
70250;BME280;57644;48.416;-123.374;2022-10-15T05:34:31;101553.07;;;6.89;74.00
70250;BME280;57644;48.416;-123.374;2022-10-15T05:36:58;101557.69;;;6.89;73.72
70250;BME280;57644;48.416;-123.374;2022-10-15T05:39:30;101558.39;;;6.82;73.91
70250;BME280;57644;48.416;-123.374;2022-10-15T05:41:59;101557.65;;;6.81;74.18
70250;BME280;57644;48.416;-123.374;2022-10-15T05:44:29;101558.17;;;6.82;74.10
70250;BME280;57644;48.416;-123.374;2022-10-15T05:47:00;101564.82;;;6.79;74.50
70250;BME280;57644;48.416;-123.374;2022-10-15T05:49:34;101571.25;;;6.79;74.38
70250;BME280;57644;48.416;-123.374;2022-10-15T05:52:00;101568.95;;;6.75;74.18
70250;BME280;57644;48.416;-123.374;2022-10-15T05:54:30;101565.26;;;6.78;74.07
70250;BME280;57644;48.416;-123.374;2022-10-15T05:59:30;101563.77;;;6.83;73.69
70250;BME280;57644;48.416;-123.374;2022-10-15T06:02:01;101565.43;;;6.87;73.48
70250;BME280;57644;48.416;-123.374;2022-10-15T06:04:32;101573.20;;;6.90;73.23
70250;BME280;57644;48.416;-123.374;2022-10-15T06:07:03;101575.68;;;6.93;73.07
70250;BME280;57644;48.416;-123.374;2022-10-15T06:09:32;101577.42;;;6.86;73.22
70250;BME280;57644;48.416;-123.374;2022-10-15T06:12:02;101573.96;;;6.88;73.14
70250;BME280;57644;48.416;-123.374;2022-10-15T06:14:33;101574.91;;;6.84;73.19
70250;BME280;57644;48.416;-123.374;2022-10-15T06:17:03;101577.07;;;6.84;72.87
70250;BME280;57644;48.416;-123.374;2022-10-15T06:19:34;101575.00;;;6.83;73.07
70250;BME280;57644;48.416;-123.374;2022-10-15T06:22:04;101578.23;;;6.78;72.98
70250;BME280;57644;48.416;-123.374;2022-10-15T06:24:35;101574.75;;;6.75;72.95
70250;BME280;57644;48.416;-123.374;2022-10-15T06:27:06;101572.88;;;6.72;73.21
70250;BME280;57644;48.416;-123.374;2022-10-15T06:29:36;101574.25;;;6.73;73.22
70250;BME280;57644;48.416;-123.374;2022-10-15T06:32:09;101571.80;;;6.71;73.17
70250;BME280;57644;48.416;-123.374;2022-10-15T06:34:37;101566.27;;;6.73;72.88
70250;BME280;57644;48.416;-123.374;2022-10-15T06:37:07;101570.31;;;6.71;73.02
70250;BME280;57644;48.416;-123.374;2022-10-15T06:42:08;101564.42;;;6.58;73.29
70250;BME280;57644;48.416;-123.374;2022-10-15T06:44:40;101569.58;;;6.61;73.17
70250;BME280;57644;48.416;-123.374;2022-10-15T06:47:11;101568.97;;;6.57;73.45
70250;BME280;57644;48.416;-123.374;2022-10-15T06:49:40;101567.92;;;6.55;73.43
70250;BME280;57644;48.416;-123.374;2022-10-15T06:52:11;101565.00;;;6.53;73.63
70250;BME280;57644;48.416;-123.374;2022-10-15T06:54:41;101565.10;;;6.43;74.33
70250;BME280;57644;48.416;-123.374;2022-10-15T06:57:11;101567.69;;;6.42;74.03
70250;BME280;57644;48.416;-123.374;2022-10-15T06:59:41;101561.87;;;6.38;74.15
70250;BME280;57644;48.416;-123.374;2022-10-15T07:02:12;101567.30;;;6.44;73.92
70250;BME280;57644;48.416;-123.374;2022-10-15T07:04:43;101567.55;;;6.40;73.80
70250;BME280;57644;48.416;-123.374;2022-10-15T07:07:12;101567.66;;;6.39;74.03
70250;BME280;57644;48.416;-123.374;2022-10-15T07:09:43;101568.77;;;6.34;73.98
70250;BME280;57644;48.416;-123.374;2022-10-15T07:12:13;101562.34;;;6.29;74.10
70250;BME280;57644;48.416;-123.374;2022-10-15T07:14:43;101560.27;;;6.30;74.06
70250;BME280;57644;48.416;-123.374;2022-10-15T07:17:13;101560.58;;;6.31;73.98
70250;BME280;57644;48.416;-123.374;2022-10-15T07:19:44;101562.15;;;6.27;74.07
70250;BME280;57644;48.416;-123.374;2022-10-15T07:22:14;101561.23;;;6.31;74.03
70250;BME280;57644;48.416;-123.374;2022-10-15T07:24:45;101562.37;;;6.37;73.80
70250;BME280;57644;48.416;-123.374;2022-10-15T07:27:15;101559.44;;;6.39;73.89
70250;BME280;57644;48.416;-123.374;2022-10-15T07:29:45;101555.76;;;6.31;74.48
70250;BME280;57644;48.416;-123.374;2022-10-15T07:32:16;101553.76;;;6.37;73.88
70250;BME280;57644;48.416;-123.374;2022-10-15T07:34:46;101555.68;;;6.37;73.84
70250;BME280;57644;48.416;-123.374;2022-10-15T07:37:16;101558.04;;;6.32;73.82
70250;BME280;57644;48.416;-123.374;2022-10-15T07:39:46;101559.08;;;6.26;73.88
70250;BME280;57644;48.416;-123.374;2022-10-15T07:42:17;101559.37;;;6.26;73.97
70250;BME280;57644;48.416;-123.374;2022-10-15T07:44:48;101559.74;;;6.20;74.24
70250;BME280;57644;48.416;-123.374;2022-10-15T07:47:18;101560.00;;;6.22;74.29
70250;BME280;57644;48.416;-123.374;2022-10-15T07:49:49;101559.60;;;6.22;74.10
70250;BME280;57644;48.416;-123.374;2022-10-15T07:52:19;101558.23;;;6.22;74.22
70250;BME280;57644;48.416;-123.374;2022-10-15T07:54:49;101554.55;;;6.24;74.08
70250;BME280;57644;48.416;-123.374;2022-10-15T07:57:20;101550.98;;;6.18;74.48
70250;BME280;57644;48.416;-123.374;2022-10-15T07:59:50;101551.89;;;6.14;74.42
70250;BME280;57644;48.416;-123.374;2022-10-15T08:02:20;101550.32;;;6.04;74.84
70250;BME280;57644;48.416;-123.374;2022-10-15T08:04:50;101550.75;;;6.09;74.47
70250;BME280;57644;48.416;-123.374;2022-10-15T08:07:20;101554.82;;;6.07;74.65
70250;BME280;57644;48.416;-123.374;2022-10-15T08:09:51;101556.67;;;6.04;74.60
70250;BME280;57644;48.416;-123.374;2022-10-15T08:12:22;101558.88;;;6.08;74.31
70250;BME280;57644;48.416;-123.374;2022-10-15T08:14:52;101560.15;;;6.08;74.16
70250;BME280;57644;48.416;-123.374;2022-10-15T08:17:22;101559.95;;;6.08;74.21
70250;BME280;57644;48.416;-123.374;2022-10-15T08:19:53;101557.87;;;6.02;74.64
70250;BME280;57644;48.416;-123.374;2022-10-15T08:22:23;101562.78;;;5.95;74.99
70250;BME280;57644;48.416;-123.374;2022-10-15T08:24:53;101563.42;;;5.94;75.25
70250;BME280;57644;48.416;-123.374;2022-10-15T08:27:23;101563.35;;;5.87;75.64
70250;BME280;57644;48.416;-123.374;2022-10-15T08:29:54;101565.62;;;5.89;75.24
70250;BME280;57644;48.416;-123.374;2022-10-15T08:32:24;101564.32;;;5.97;74.85
70250;BME280;57644;48.416;-123.374;2022-10-15T08:34:54;101560.50;;;6.00;74.57
70250;BME280;57644;48.416;-123.374;2022-10-15T08:37:24;101560.70;;;5.84;75.33
70250;BME280;57644;48.416;-123.374;2022-10-15T08:39:55;101561.59;;;5.86;75.13
70250;BME280;57644;48.416;-123.374;2022-10-15T08:42:30;101565.80;;;5.88;75.13
70250;BME280;57644;48.416;-123.374;2022-10-15T08:45:00;101564.87;;;5.88;75.08
70250;BME280;57644;48.416;-123.374;2022-10-15T08:47:33;101568.06;;;5.81;75.69
70250;BME280;57644;48.416;-123.374;2022-10-15T08:49:58;101570.43;;;5.81;75.52
70250;BME280;57644;48.416;-123.374;2022-10-15T08:52:37;101567.27;;;5.77;75.60
70250;BME280;57644;48.416;-123.374;2022-10-15T08:55:00;101564.11;;;5.75;75.63
70250;BME280;57644;48.416;-123.374;2022-10-15T08:57:37;101561.49;;;5.79;75.41
70250;BME280;57644;48.416;-123.374;2022-10-15T09:00:03;101558.59;;;5.78;75.46
70250;BME280;57644;48.416;-123.374;2022-10-15T09:02:35;101558.16;;;5.75;75.31
70250;BME280;57644;48.416;-123.374;2022-10-15T09:05:04;101560.89;;;5.72;75.19
70250;BME280;57644;48.416;-123.374;2022-10-15T09:07:35;101558.42;;;5.69;75.46
70250;BME280;57644;48.416;-123.374;2022-10-15T09:10:11;101565.42;;;5.75;75.28
70250;BME280;57644;48.416;-123.374;2022-10-15T09:12:39;101572.47;;;5.71;75.61
70250;BME280;57644;48.416;-123.374;2022-10-15T09:15:01;101571.18;;;5.68;75.48
70250;BME280;57644;48.416;-123.374;2022-10-15T09:17:32;101572.88;;;5.65;75.44
70250;BME280;57644;48.416;-123.374;2022-10-15T09:20:05;101573.74;;;5.58;75.96
70250;BME280;57644;48.416;-123.374;2022-10-15T09:22:33;101571.67;;;5.51;76.11
70250;BME280;57644;48.416;-123.374;2022-10-15T09:25:15;101572.58;;;5.46;76.41
70250;BME280;57644;48.416;-123.374;2022-10-15T09:27:34;101578.99;;;5.46;76.56
70250;BME280;57644;48.416;-123.374;2022-10-15T09:30:14;101580.25;;;5.42;77.05
70250;BME280;57644;48.416;-123.374;2022-10-15T09:32:38;101583.10;;;5.35;76.91
70250;BME280;57644;48.416;-123.374;2022-10-15T09:35:11;101579.94;;;5.32;77.01
70250;BME280;57644;48.416;-123.374;2022-10-15T09:37:42;101575.83;;;5.30;76.77
70250;BME280;57644;48.416;-123.374;2022-10-15T09:42:37;101584.07;;;5.38;76.44
70250;BME280;57644;48.416;-123.374;2022-10-15T09:45:09;101579.55;;;5.33;76.51
70250;BME280;57644;48.416;-123.374;2022-10-15T09:47:36;101578.42;;;5.26;76.83
70250;BME280;57644;48.416;-123.374;2022-10-15T09:50:08;101576.60;;;5.19;76.77
70250;BME280;57644;48.416;-123.374;2022-10-15T09:52:48;101572.04;;;5.19;76.84
70250;BME280;57644;48.416;-123.374;2022-10-15T09:55:14;101571.34;;;5.22;76.67
70250;BME280;57644;48.416;-123.374;2022-10-15T09:57:37;101572.24;;;5.24;76.81
70250;BME280;57644;48.416;-123.374;2022-10-15T10:00:10;101575.24;;;5.25;76.61
70250;BME280;57644;48.416;-123.374;2022-10-15T10:02:37;101571.57;;;5.22;77.06
70250;BME280;57644;48.416;-123.374;2022-10-15T10:07:38;101570.65;;;5.26;76.76
70250;BME280;57644;48.416;-123.374;2022-10-15T10:12:38;101569.45;;;5.30;76.80
70250;BME280;57644;48.416;-123.374;2022-10-15T10:17:46;101568.53;;;5.19;77.44
70250;BME280;57644;48.416;-123.374;2022-10-15T10:20:15;101573.94;;;5.22;77.06
70250;BME280;57644;48.416;-123.374;2022-10-15T10:22:43;101571.66;;;5.21;77.18
70250;BME280;57644;48.416;-123.374;2022-10-15T10:27:44;101564.66;;;5.15;77.41
70250;BME280;57644;48.416;-123.374;2022-10-15T10:30:13;101566.38;;;5.02;77.52
70250;BME280;57644;48.416;-123.374;2022-10-15T10:32:42;101569.54;;;5.05;77.58
70250;BME280;57644;48.416;-123.374;2022-10-15T10:35:20;101568.21;;;5.05;77.47
70250;BME280;57644;48.416;-123.374;2022-10-15T10:37:42;101569.51;;;5.06;77.34
70250;BME280;57644;48.416;-123.374;2022-10-15T10:40:21;101568.92;;;5.00;77.67
70250;BME280;57644;48.416;-123.374;2022-10-15T10:42:43;101570.02;;;4.99;78.04
70250;BME280;57644;48.416;-123.374;2022-10-15T10:45:19;101566.09;;;5.00;77.78
70250;BME280;57644;48.416;-123.374;2022-10-15T10:47:44;101575.92;;;4.86;78.64
70250;BME280;57644;48.416;-123.374;2022-10-15T10:52:45;101576.10;;;4.72;79.50
70250;BME280;57644;48.416;-123.374;2022-10-15T10:55:18;101576.62;;;4.78;79.02
70250;BME280;57644;48.416;-123.374;2022-10-15T10:57:48;101573.20;;;4.80;78.77
70250;BME280;57644;48.416;-123.374;2022-10-15T11:00:20;101569.92;;;4.87;78.69
70250;BME280;57644;48.416;-123.374;2022-10-15T11:02:46;101569.88;;;4.84;79.25
70250;BME280;57644;48.416;-123.374;2022-10-15T11:05:24;101567.43;;;4.89;78.57
70250;BME280;57644;48.416;-123.374;2022-10-15T11:07:53;101559.58;;;4.95;78.33
70250;BME280;57644;48.416;-123.374;2022-10-15T11:10:22;101560.04;;;4.98;78.37
70250;BME280;57644;48.416;-123.374;2022-10-15T11:12:58;101557.20;;;5.01;77.93
70250;BME280;57644;48.416;-123.374;2022-10-15T11:15:29;101557.47;;;4.98;77.79
70250;BME280;57644;48.416;-123.374;2022-10-15T11:17:53;101553.42;;;5.03;77.70
70250;BME280;57644;48.416;-123.374;2022-10-15T11:20:24;101552.71;;;5.07;77.62
70250;BME280;57644;48.416;-123.374;2022-10-15T11:23:01;101551.28;;;5.07;77.48
70250;BME280;57644;48.416;-123.374;2022-10-15T11:25:26;101555.24;;;5.03;77.49
70250;BME280;57644;48.416;-123.374;2022-10-15T11:27:57;101553.15;;;4.95;77.74
70250;BME280;57644;48.416;-123.374;2022-10-15T11:30:28;101554.42;;;4.96;77.79
70250;BME280;57644;48.416;-123.374;2022-10-15T11:32:55;101552.64;;;5.00;77.91
70250;BME280;57644;48.416;-123.374;2022-10-15T11:35:35;101557.56;;;5.00;77.54
70250;BME280;57644;48.416;-123.374;2022-10-15T11:37:59;101559.08;;;4.94;77.47
70250;BME280;57644;48.416;-123.374;2022-10-15T11:40:27;101557.22;;;4.89;77.32
70250;BME280;57644;48.416;-123.374;2022-10-15T11:42:56;101559.77;;;4.85;77.85
70250;BME280;57644;48.416;-123.374;2022-10-15T11:47:58;101568.49;;;4.78;78.30
70250;BME280;57644;48.416;-123.374;2022-10-15T11:50:29;101568.62;;;4.84;78.24
70250;BME280;57644;48.416;-123.374;2022-10-15T11:53:08;101567.61;;;4.83;78.27
70250;BME280;57644;48.416;-123.374;2022-10-15T11:55:31;101568.56;;;4.80;78.25
70250;BME280;57644;48.416;-123.374;2022-10-15T11:57:59;101567.03;;;4.85;77.87
70250;BME280;57644;48.416;-123.374;2022-10-15T12:00:30;101568.38;;;4.88;77.61
70250;BME280;57644;48.416;-123.374;2022-10-15T12:02:58;101567.64;;;4.92;77.48
70250;BME280;57644;48.416;-123.374;2022-10-15T12:05:30;101565.50;;;4.92;77.60
70250;BME280;57644;48.416;-123.374;2022-10-15T12:07:56;101562.03;;;4.80;77.70
70250;BME280;57644;48.416;-123.374;2022-10-15T12:10:36;101561.92;;;4.79;77.49
70250;BME280;57644;48.416;-123.374;2022-10-15T12:13:00;101559.56;;;4.81;77.43
70250;BME280;57644;48.416;-123.374;2022-10-15T12:15:32;101562.43;;;4.77;77.86
70250;BME280;57644;48.416;-123.374;2022-10-15T12:18:02;101564.03;;;4.80;77.57
70250;BME280;57644;48.416;-123.374;2022-10-15T12:20:29;101566.65;;;4.71;78.03
70250;BME280;57644;48.416;-123.374;2022-10-15T12:23:01;101569.13;;;4.72;77.98
70250;BME280;57644;48.416;-123.374;2022-10-15T12:28:01;101570.46;;;4.80;77.68
70250;BME280;57644;48.416;-123.374;2022-10-15T12:30:31;101571.76;;;4.82;77.61
70250;BME280;57644;48.416;-123.374;2022-10-15T12:33:01;101572.62;;;4.79;77.75
70250;BME280;57644;48.416;-123.374;2022-10-15T12:35:35;101573.73;;;4.75;77.97
70250;BME280;57644;48.416;-123.374;2022-10-15T12:38:09;101574.75;;;4.76;78.08
70250;BME280;57644;48.416;-123.374;2022-10-15T12:40:31;101577.12;;;4.79;77.83
70250;BME280;57644;48.416;-123.374;2022-10-15T12:43:02;101579.10;;;4.84;77.45
70250;BME280;57644;48.416;-123.374;2022-10-15T12:45:35;101581.98;;;4.84;77.38
70250;BME280;57644;48.416;-123.374;2022-10-15T12:50:34;101580.39;;;4.78;77.45
70250;BME280;57644;48.416;-123.374;2022-10-15T12:53:04;101580.40;;;4.65;77.95
70250;BME280;57644;48.416;-123.374;2022-10-15T12:55:35;101584.72;;;4.62;77.93
70250;BME280;57644;48.416;-123.374;2022-10-15T12:58:15;101583.26;;;4.53;78.53
70250;BME280;57644;48.416;-123.374;2022-10-15T13:00:36;101587.53;;;4.56;78.34
70250;BME280;57644;48.416;-123.374;2022-10-15T13:05:35;101587.65;;;4.51;78.62
70250;BME280;57644;48.416;-123.374;2022-10-15T13:08:12;101590.81;;;4.49;78.66
70250;BME280;57644;48.416;-123.374;2022-10-15T13:10:39;101589.61;;;4.50;78.74
70250;BME280;57644;48.416;-123.374;2022-10-15T13:13:10;101592.57;;;4.56;78.32
70250;BME280;57644;48.416;-123.374;2022-10-15T13:15:36;101589.95;;;4.57;78.23
70250;BME280;57644;48.416;-123.374;2022-10-15T13:18:10;101591.05;;;4.58;78.24
70250;BME280;57644;48.416;-123.374;2022-10-15T13:20:39;101588.06;;;4.50;78.47
70250;BME280;57644;48.416;-123.374;2022-10-15T13:23:13;101588.20;;;4.47;78.62
70250;BME280;57644;48.416;-123.374;2022-10-15T13:25:37;101586.82;;;4.46;78.66
70250;BME280;57644;48.416;-123.374;2022-10-15T13:30:47;101589.27;;;4.53;78.51
70250;BME280;57644;48.416;-123.374;2022-10-15T13:33:10;101591.23;;;4.61;78.42